Time;durP1;ratioP1;P1;durP2;ratioP2;P2;SDS_P1;SDS_P2;PMS_P1;PMS_P2;Temp;Humidity;BMP_temperature;BMP_pressure;BME280_temperature;BME280_humidity;BME280_pressure;Samples;Min_cycle;Max_cycle;Signal;HPM_P1;HPM_P2
2021/12/13 05:31:21;;;;;;;6.78;5.65;;;;;;;1.72;79.63;94445.66;827330;71;33167;-81
2021/12/13 05:46:14;;;;;;;6.20;5.60;;;;;;;1.75;78.44;94447.80;828218;71;29655;-80
2021/12/13 06:01:12;;;;;;;6.20;5.40;;;;;;;1.80;78.14;94474.54;828158;71;30291;-75
2021/12/13 06:16:15;;;;;;;5.95;5.28;;;;;;;1.85;77.91;94495.05;834038;71;31366;-76
2021/12/13 06:31:39;;;;;;;6.67;5.50;;;;;;;1.87;78.59;94502.06;824329;71;32718;-78
2021/12/13 06:46:11;;;;;;;7.28;5.47;;;;;;;1.90;78.94;94514.00;828199;71;29716;-77
2021/12/13 07:01:32;;;;;;;6.58;5.97;;;;;;;1.92;79.08;94527.48;816916;71;32739;-81
2021/12/13 07:16:28;;;;;;;8.05;6.58;;;;;;;2.04;78.68;94537.01;828108;71;30413;-80
2021/12/13 07:31:11;;;;;;;6.50;5.70;;;;;;;2.08;78.55;94535.53;834292;71;30816;-79
2021/12/13 07:46:20;;;;;;;5.87;5.33;;;;;;;2.12;78.54;94552.94;834238;71;30175;-78
2021/12/13 08:01:25;;;;;;;7.40;6.55;;;;;;;2.23;78.24;94563.45;833957;71;33123;-76
2021/12/13 08:16:12;;;;;;;6.83;6.08;;;;;;;2.28;77.78;94555.27;834226;71;30760;-77
2021/12/13 08:31:25;;;;;;;6.08;5.58;;;;;;;2.34;77.49;94569.88;827687;71;32684;-78
2021/12/13 08:46:13;;;;;;;7.55;6.40;;;;;;;2.37;77.24;94573.79;828563;71;30667;-76
2021/12/13 09:01:13;;;;;;;6.65;6.05;;;;;;;2.38;76.78;94567.09;828780;71;30215;-78
2021/12/13 09:16:12;;;;;;;8.53;6.47;;;;;;;2.38;76.35;94573.56;833990;71;30341;-79
2021/12/13 09:31:18;;;;;;;6.83;6.12;;;;;;;2.49;76.49;94568.03;823254;71;30264;-77
2021/12/13 09:46:11;;;;;;;8.23;5.95;;;;;;;2.55;76.29;94555.95;823434;71;30392;-79
2021/12/13 10:01:21;;;;;;;8.70;6.62;;;;;;;2.71;76.47;94556.45;821035;71;32796;-79
2021/12/13 10:16:12;;;;;;;7.20;6.40;;;;;;;2.84;75.63;94549.38;821510;71;30344;-77
2021/12/13 10:31:18;;;;;;;8.50;6.62;;;;;;;3.06;75.15;94532.59;827969;71;30814;-78
2021/12/13 10:46:12;;;;;;;8.58;7.30;;;;;;;3.31;74.34;94525.14;829222;71;29708;-79
2021/12/13 11:01:17;;;;;;;7.75;6.83;;;;;;;3.44;73.79;94521.91;828125;71;29640;-79
2021/12/13 11:16:17;;;;;;;8.00;7.20;;;;;;;3.47;73.79;94528.70;826994;71;32637;-80
2021/12/13 11:31:33;;;;;;;7.53;6.78;;;;;;;3.50;73.77;94515.76;827970;71;29654;-81
2021/12/13 11:46:33;;;;;;;8.68;7.35;;;;;;;3.45;73.47;94519.58;833696;71;33150;-78
2021/12/13 12:01:47;;;;;;;8.90;7.78;;;;;;;3.39;73.76;94530.42;832489;71;32792;-76
2021/12/13 12:16:10;;;;;;;8.25;7.42;;;;;;;3.33;73.91;94527.50;827963;71;30360;-77
2021/12/13 12:31:08;;;;;;;10.10;8.60;;;;;;;3.26;74.63;94527.66;828496;71;29677;-79
2021/12/13 12:46:16;;;;;;;11.15;8.98;;;;;;;3.27;75.01;94537.54;833834;71;30358;-78
2021/12/13 13:01:32;;;;;;;9.20;8.30;;;;;;;3.20;75.09;94542.88;827929;71;30364;-79
2021/12/13 13:16:10;;;;;;;10.88;8.50;;;;;;;3.09;75.51;94547.16;827928;71;30363;-77
2021/12/13 13:31:37;;;;;;;11.33;8.78;;;;;;;3.11;76.26;94576.73;833667;71;32679;-77
2021/12/13 13:46:44;;;;;;;9.93;8.15;;;;;;;3.00;76.40;94573.19;801197;74;33467;-78
2021/12/13 14:01:18;;;;;;;12.37;8.75;;;;;;;2.90;76.78;94582.12;834157;71;32013;-78
2021/12/13 14:16:21;;;;;;;11.05;8.58;;;;;;;2.84;76.93;94592.13;833922;71;33209;-79
2021/12/13 14:31:17;;;;;;;12.63;9.20;;;;;;;2.76;77.13;94603.70;827625;71;32655;-78
2021/12/13 18:46:20;;;;;;;12.53;9.25;;;;;;;2.19;77.71;94730.88;824924;71;32707;-81
2021/12/13 19:01:42;;;;;;;13.88;10.32;;;;;;;2.16;77.88;94731.84;833579;71;33193;-79
2021/12/13 19:16:32;;;;;;;10.75;8.63;;;;;;;2.11;78.05;94732.53;827415;71;32732;-79
2021/12/13 19:31:34;;;;;;;12.82;8.63;;;;;;;2.16;78.23;94730.03;834473;71;32684;-82
2021/12/13 20:01:14;;;;;;;14.15;9.13;;;;;;;2.21;77.82;94756.55;826968;71;30904;-82
2021/12/13 23:16:53;;;;;;;;;;;;;;;;;;;;;
2021/12/13 23:31:56;;;;;;;;;;;;;;;;;;;;;
2021/12/13 23:46:49;;;;;;;6.58;5.30;;;;;;;1.98;77.92;94726.30;827757;71;32961;-81
